Hovedside
METAR-TAF:

METAR-TAF

Lufthavner :

Vasa, Finland

Vasa lufthavn

breddegrad: 63-03N, lengdegrad: 021-46E, høyde over havet: 4 m

Gjeldene værobservasjon

Denne rapporten ble laget for 31 minutter siden, klokken 13:20 UTC
Vind 11 kt fra Nord-nordvest
Temperatur -11°C
Luftfuktighet 78%
Trykk 1042 hPa
Sikt 10 km eller mer

METAR: EFVA 251320Z AUTO 34011KT 9999 OVC072/// M11/M14 Q1042

Tid: 15:51 (13:51 UTC)

Varsel

Denne rapporten ble laget for 2 timer og 20 minutter siden, klokken 11:31 UTC
Varsel gyldig fra 25. klokken 12 UTC til 26. klokken 12 UTC
Vind 9 kt fra Nord
Sikt 10 km eller mer
Få skyer i en høyde av 2000 ft
Brutte skyer i en høyde av 6000 ft
lett snø
Sannsynlighet 30% :
Midlertidig
fra 25. klokken 13 UTC til 25. klokken 21 UTC
Brutte skyer i en høyde av 1200 ft
Midlertidig
fra 25. klokken 21 UTC til 26. klokken 12 UTC
Sikt: 6000 m
Brutte skyer i en høyde av 1200 ft

TAF: EFVA 251131Z 2512/2612 01009KT 9999 -SN FEW020 BKN060 PROB30 TEMPO 2513/2521 BKN012 TEMPO 2521/2612 6000 BKN012

Værobservasjoner og værvarsel for over 4000 flyplasser (METAR- og TAF-rapporter).

Tilgjengelige stasjoner er representert av de røde og gule prikkene på kartet.

Hold musepekeren over prikken for å se navnet på stasjonen.

Klikk så for å se værobservasjoner og -varsler.

For å forandre kartet kan du klikke på den grønne knappen med svart kryss for å zoome inn, på den grønne knappen med strek for å zoome ut, eller på de grønne pilene for å se tilstøtende kart.


METAR-TAF: